Time;durP1;ratioP1;P1;durP2;ratioP2;P2;SDS_P1;SDS_P2;PMS_P1;PMS_P2;Temp;Humidity;BMP_temperature;BMP_pressure;BME280_temperature;BME280_humidity;BME280_pressure;Samples;Min_cycle;Max_cycle;Signal;HPM_P1;HPM_P2
2023/07/23 04:00:28;;;;;;;6.03;2.70;;;17.80;97.30;;;;;;5987322;23;21245;-85
2023/07/23 04:02:54;;;;;;;1.97;1.83;;;17.80;97.30;;;;;;4928916;29;20478;-85
2023/07/23 04:05:19;;;;;;;2.73;2.00;;;17.70;97.30;;;;;;4942412;29;20223;-85
2023/07/23 04:07:45;;;;;;;1.70;1.60;;;17.70;97.30;;;;;;4948635;28;20234;-84
2023/07/23 04:10:10;;;;;;;2.03;1.73;;;17.70;97.30;;;;;;4949112;29;20667;-84
2023/07/23 04:12:37;;;;;;;2.70;2.27;;;17.70;97.30;;;;;;4970487;23;20199;-82
2023/07/23 04:15:03;;;;;;;2.83;2.60;;;17.60;97.30;;;;;;4954683;28;20664;-82
2023/07/23 04:17:29;;;;;;;8.17;2.50;;;17.60;97.30;;;;;;4962921;28;20911;-84
2023/07/23 04:19:54;;;;;;;4.00;2.67;;;17.50;97.30;;;;;;4962312;28;20428;-83
2023/07/23 04:22:20;;;;;;;3.27;2.00;;;17.50;97.30;;;;;;4959833;28;20194;-82
2023/07/23 04:24:45;;;;;;;6.37;3.20;;;17.50;97.30;;;;;;4939908;28;20203;-84
2023/07/23 04:27:11;;;;;;;4.10;3.13;;;17.40;97.30;;;;;;4942320;28;20183;-84
2023/07/23 04:29:36;;;;;;;2.13;2.00;;;17.40;97.30;;;;;;4934735;28;20183;-85
2023/07/23 04:32:02;;;;;;;3.03;1.70;;;17.40;97.30;;;;;;4942552;28;20552;-83
2023/07/23 04:34:28;;;;;;;3.50;2.70;;;17.30;97.30;;;;;;4943906;29;20203;-80
2023/07/23 04:36:53;;;;;;;2.20;2.00;;;17.30;97.30;;;;;;4952276;28;20191;-84
2023/07/23 04:39:22;;;;;;;5.67;2.90;;;17.30;97.30;;;;;;4936032;28;20182;-82
2023/07/23 04:41:48;;;;;;;2.03;1.60;;;17.20;97.30;;;;;;4943794;29;20209;-81
2023/07/23 04:44:13;;;;;;;2.80;1.70;;;17.20;97.30;;;;;;4941123;28;20977;-83
2023/07/23 04:46:39;;;;;;;4.47;2.40;;;17.20;97.30;;;;;;4934818;28;20184;-85
2023/07/23 04:49:05;;;;;;;4.77;3.33;;;17.20;97.30;;;;;;4940304;28;20204;-86
2023/07/23 04:51:31;;;;;;;3.93;2.37;;;17.10;97.30;;;;;;4933999;28;20190;-82
2023/07/23 04:53:56;;;;;;;12.60;3.53;;;17.10;97.30;;;;;;4934487;28;20204;-84
2023/07/23 04:56:22;;;;;;;5.37;3.00;;;17.10;97.30;;;;;;4935436;28;20416;-82
2023/07/23 04:58:47;;;;;;;5.17;2.50;;;17.10;97.30;;;;;;4935369;28;20176;-84
2023/07/23 05:01:13;;;;;;;4.20;1.53;;;17.10;97.30;;;;;;4935238;28;20186;-84
2023/07/23 05:03:39;;;;;;;4.60;2.20;;;17.10;97.30;;;;;;4942718;28;20215;-85
2023/07/23 05:06:06;;;;;;;2.03;1.93;;;17.10;97.30;;;;;;4935630;28;20188;-83
2023/07/23 05:08:33;;;;;;;14.03;2.90;;;17.10;97.30;;;;;;4945707;28;20949;-84
2023/07/23 05:11:03;;;;;;;2.57;1.87;;;17.10;97.30;;;;;;4936438;28;20430;-85
2023/07/23 05:13:30;;;;;;;2.37;2.20;;;17.20;97.30;;;;;;4935572;28;20475;-82
2023/07/23 05:15:57;;;;;;;2.43;1.90;;;17.20;97.30;;;;;;4935158;28;20431;-84
2023/07/23 05:18:24;;;;;;;5.53;1.87;;;17.20;97.30;;;;;;4936236;28;20542;-82
2023/07/23 05:20:49;;;;;;;2.80;2.40;;;17.20;97.30;;;;;;4942813;28;20426;-83
2023/07/23 05:23:15;;;;;;;3.93;2.73;;;17.20;97.30;;;;;;4939799;28;20470;-84
2023/07/23 05:25:42;;;;;;;4.20;2.07;;;17.20;97.30;;;;;;4943556;28;20175;-86
2023/07/23 05:28:08;;;;;;;6.80;3.17;;;17.30;97.30;;;;;;4935526;28;20441;-81
2023/07/23 05:30:33;;;;;;;3.70;2.07;;;17.30;97.30;;;;;;4935567;28;20434;-83
2023/07/23 05:32:59;;;;;;;3.20;2.20;;;17.30;97.30;;;;;;4935841;28;20587;-84
2023/07/23 05:35:24;;;;;;;2.80;2.60;;;17.30;97.30;;;;;;4949273;28;20191;-81
2023/07/23 05:37:50;;;;;;;3.23;3.00;;;17.30;97.30;;;;;;4936453;28;20196;-84
2023/07/23 05:40:15;;;;;;;1.50;1.40;;;17.40;97.30;;;;;;4937114;28;20263;-82
2023/07/23 05:42:41;;;;;;;2.47;2.27;;;17.40;97.30;;;;;;4935013;28;20226;-85
2023/07/23 05:45:07;;;;;;;4.93;2.07;;;17.40;97.30;;;;;;4936046;28;20275;-82
2023/07/23 05:47:33;;;;;;;2.40;2.00;;;17.40;97.30;;;;;;4958158;28;20651;-82
2023/07/23 05:49:58;;;;;;;2.37;2.20;;;17.50;97.30;;;;;;4938857;28;20424;-84
2023/07/23 05:52:24;;;;;;;10.97;2.87;;;17.50;97.30;;;;;;4940251;28;20230;-83
2023/07/23 05:54:49;;;;;;;2.37;1.87;;;17.60;97.30;;;;;;4935730;28;20203;-86
2023/07/23 05:57:15;;;;;;;2.10;1.80;;;17.60;97.30;;;;;;4935510;28;20196;-83
2023/07/23 05:59:40;;;;;;;3.70;2.17;;;17.70;97.30;;;;;;4935352;28;20295;-81
2023/07/23 06:02:06;;;;;;;2.70;2.33;;;17.70;97.30;;;;;;4943286;28;20192;-86
2023/07/23 06:04:32;;;;;;;7.33;3.10;;;17.70;97.30;;;;;;4942983;28;20203;-81
2023/07/23 06:06:57;;;;;;;3.80;3.23;;;17.80;97.30;;;;;;4936764;28;20192;-82
2023/07/23 06:09:23;;;;;;;2.47;1.70;;;17.80;97.30;;;;;;4936430;28;20184;-83
2023/07/23 06:11:48;;;;;;;2.10;1.73;;;17.90;97.30;;;;;;4935334;28;20218;-85
2023/07/23 06:14:14;;;;;;;4.60;2.73;;;17.90;97.30;;;;;;4941172;28;20267;-82
2023/07/23 06:16:39;;;;;;;8.00;2.50;;;17.90;97.30;;;;;;4935216;28;20190;-80
2023/07/23 06:19:05;;;;;;;3.33;2.50;;;18.00;97.30;;;;;;4936847;28;20184;-84
2023/07/23 06:21:31;;;;;;;3.13;2.40;;;18.00;97.30;;;;;;4939242;28;20646;-84
2023/07/23 06:23:56;;;;;;;3.97;3.33;;;18.10;97.30;;;;;;4937587;28;20481;-84
2023/07/23 06:26:22;;;;;;;3.20;2.10;;;18.10;97.30;;;;;;4943250;28;20184;-84
2023/07/23 06:28:48;;;;;;;4.20;1.90;;;18.20;97.30;;;;;;4936052;28;20192;-83
2023/07/23 06:31:13;;;;;;;5.90;3.00;;;18.20;97.30;;;;;;4938608;28;20581;-85
2023/07/23 06:33:39;;;;;;;4.50;2.37;;;18.20;97.30;;;;;;4954832;28;20203;-83
2023/07/23 06:36:05;;;;;;;3.30;2.47;;;18.30;97.30;;;;;;4955463;28;20191;-84
2023/07/23 06:38:30;;;;;;;2.03;1.90;;;18.30;97.30;;;;;;4939274;28;20176;-84
2023/07/23 06:40:56;;;;;;;3.60;1.97;;;18.40;97.30;;;;;;4939377;28;20180;-85
2023/07/23 06:43:23;;;;;;;2.50;2.30;;;18.40;97.30;;;;;;4938720;28;20212;-83
2023/07/23 06:45:49;;;;;;;2.17;1.90;;;18.40;97.30;;;;;;4946543;28;20453;-82
2023/07/23 06:48:17;;;;;;;2.90;2.57;;;18.40;97.30;;;;;;4939410;28;20414;-84
2023/07/23 06:50:44;;;;;;;2.60;2.23;;;18.50;97.30;;;;;;4938668;28;20535;-85
2023/07/23 06:53:11;;;;;;;1.57;1.47;;;18.50;97.30;;;;;;4953491;28;20835;-82
2023/07/23 06:56:00;;;;;;;2.20;2.03;;;18.50;97.30;;;;;;4940372;28;20617;-84
2023/07/23 06:58:28;;;;;;;2.80;2.27;;;18.60;97.30;;;;;;4938325;28;20424;-82
2023/07/23 07:00:54;;;;;;;1.57;1.47;;;18.60;97.30;;;;;;4941407;28;20447;-84
2023/07/23 07:03:20;;;;;;;2.13;1.73;;;18.60;97.30;;;;;;4955217;28;21026;-84
2023/07/23 07:05:45;;;;;;;1.50;1.40;;;18.70;97.30;;;;;;4960687;28;20717;-85
2023/07/23 07:08:11;;;;;;;8.73;2.80;;;18.70;97.30;;;;;;4949438;28;20188;-83
2023/07/23 07:10:37;;;;;;;2.03;1.93;;;18.80;97.30;;;;;;4938941;28;20398;-84
2023/07/23 07:13:02;;;;;;;2.60;1.37;;;18.80;97.30;;;;;;4947317;28;20459;-84
2023/07/23 07:15:28;;;;;;;2.77;2.50;;;18.90;97.30;;;;;;4945769;28;20203;-84
2023/07/23 07:17:54;;;;;;;3.20;1.50;;;19.00;97.30;;;;;;4947787;29;20674;-87
2023/07/23 07:20:19;;;;;;;2.33;1.97;;;19.10;97.30;;;;;;4940613;28;20273;-82
2023/07/23 07:22:45;;;;;;;2.50;2.30;;;19.30;97.30;;;;;;4950219;28;20269;-80
2023/07/23 07:25:10;;;;;;;6.13;2.33;;;19.40;97.30;;;;;;4947130;28;20468;-83
2023/07/23 07:27:36;;;;;;;3.13;1.80;;;19.50;97.30;;;;;;4944337;28;20649;-84
2023/07/23 07:30:02;;;;;;;7.13;2.77;;;19.60;96.30;;;;;;4945605;28;20576;-83
2023/07/23 07:32:27;;;;;;;17.30;1.90;;;19.70;95.80;;;;;;4947126;28;20215;-83
2023/07/23 07:34:53;;;;;;;2.60;2.40;;;19.80;96.10;;;;;;4940522;28;20439;-85
2023/07/23 07:37:18;;;;;;;4.17;2.57;;;19.80;95.30;;;;;;4958904;28;20176;-83
2023/07/23 07:39:44;;;;;;;1.60;1.50;;;19.80;95.00;;;;;;4939372;28;20199;-82
2023/07/23 07:42:09;;;;;;;2.73;2.03;;;19.90;95.30;;;;;;4952983;28;20378;-83
2023/07/23 07:44:35;;;;;;;1.70;1.60;;;20.00;94.40;;;;;;4943626;28;20290;-83
2023/07/23 07:47:01;;;;;;;2.97;1.87;;;20.00;93.60;;;;;;4937700;28;20184;-83
2023/07/23 07:49:26;;;;;;;1.67;1.60;;;20.10;94.60;;;;;;4937643;28;20182;-84
2023/07/23 07:51:52;;;;;;;6.40;2.27;;;20.20;94.30;;;;;;4936297;28;20196;-84
2023/07/23 07:54:17;;;;;;;2.40;2.27;;;20.30;94.40;;;;;;4935370;28;20219;-84
2023/07/23 07:56:43;;;;;;;1.40;1.30;;;20.40;93.00;;;;;;4935872;28;20642;-82
2023/07/23 07:59:12;;;;;;;3.63;1.93;;;20.50;93.20;;;;;;4934893;28;20187;-83
2023/07/23 08:01:38;;;;;;;3.07;1.97;;;20.60;93.30;;;;;;4942019;28;20179;-83
2023/07/23 08:04:07;;;;;;;1.97;1.87;;;20.70;92.50;;;;;;4938272;28;20459;-83
2023/07/23 08:06:34;;;;;;;3.67;2.00;;;20.90;90.90;;;;;;4942277;28;20178;-81
2023/07/23 08:09:02;;;;;;;2.50;1.90;;;21.00;91.80;;;;;;4940032;28;20791;-82
2023/07/23 08:11:28;;;;;;;3.00;1.70;;;21.20;90.90;;;;;;4937475;28;20420;-82
2023/07/23 08:13:54;;;;;;;4.20;1.93;;;21.40;89.60;;;;;;4944441;28;20463;-82
2023/07/23 08:16:20;;;;;;;3.17;2.20;;;21.60;89.80;;;;;;4935820;28;21123;-82
2023/07/23 08:18:45;;;;;;;2.40;1.63;;;21.70;88.90;;;;;;4935979;28;20214;-82
2023/07/23 08:21:11;;;;;;;6.47;2.13;;;21.90;89.90;;;;;;4951375;28;20183;-85
2023/07/23 08:23:37;;;;;;;3.10;2.70;;;22.10;89.10;;;;;;4938634;28;20702;-84
2023/07/23 08:26:05;;;;;;;5.63;2.77;;;22.30;87.40;;;;;;4943417;28;20486;-82
2023/07/23 08:28:36;;;;;;;2.83;2.30;;;22.50;87.70;;;;;;4934027;28;20487;-84
2023/07/23 08:31:02;;;;;;;1.97;1.53;;;22.70;86.90;;;;;;4936526;28;20458;-85
2023/07/23 08:33:30;;;;;;;3.97;2.20;;;22.90;84.60;;;;;;4942544;28;20499;-84
2023/07/23 08:35:57;;;;;;;8.30;3.53;;;23.10;83.70;;;;;;4953359;28;20618;-83
2023/07/23 08:38:23;;;;;;;1.80;1.70;;;23.20;83.50;;;;;;4941860;28;20553;-80
2023/07/23 08:41:00;;;;;;;3.37;2.73;;;23.30;83.00;;;;;;4943408;28;20466;-83
2023/07/23 08:43:54;;;;;;;3.80;1.97;;;23.40;83.20;;;;;;4941949;28;20471;-82
2023/07/23 08:46:27;;;;;;;2.40;2.20;;;23.60;83.30;;;;;;4935994;28;20427;-83
2023/07/23 08:48:58;;;;;;;1.73;1.63;;;23.70;84.00;;;;;;4935264;28;20443;-85
2023/07/23 08:51:26;;;;;;;1.67;1.57;;;23.90;84.30;;;;;;4932804;28;20423;-84
2023/07/23 08:53:53;;;;;;;2.37;2.10;;;24.00;83.70;;;;;;4933796;28;20443;-84
2023/07/23 08:56:19;;;;;;;5.57;2.60;;;24.20;83.10;;;;;;4942064;28;20973;-83
2023/07/23 08:58:45;;;;;;;2.53;1.40;;;24.40;80.90;;;;;;4943101;28;20602;-82
2023/07/23 09:01:15;;;;;;;2.63;2.03;;;24.60;78.80;;;;;;4937142;28;20206;-86
2023/07/23 09:03:41;;;;;;;2.30;1.53;;;24.80;77.60;;;;;;4937027;28;20467;-85
2023/07/23 09:06:07;;;;;;;2.23;2.03;;;25.00;76.50;;;;;;4937162;28;20498;-83
2023/07/23 09:08:33;;;;;;;3.27;2.23;;;25.20;76.50;;;;;;4939885;28;20634;-83
2023/07/23 09:10:59;;;;;;;1.97;1.53;;;25.30;75.90;;;;;;4937319;28;20560;-82
2023/07/23 09:13:32;;;;;;;1.40;1.30;;;25.40;74.90;;;;;;4934877;28;20562;-83
2023/07/23 09:15:58;;;;;;;3.60;1.50;;;25.50;74.60;;;;;;4935709;28;20604;-82
2023/07/23 09:18:23;;;;;;;2.47;2.20;;;25.60;75.60;;;;;;4942716;28;20482;-83
2023/07/23 09:20:49;;;;;;;1.60;1.50;;;25.80;73.30;;;;;;4934268;28;20214;-84
2023/07/23 09:23:15;;;;;;;4.60;2.00;;;25.80;74.10;;;;;;4948855;28;20225;-82
2023/07/23 09:25:44;;;;;;;5.03;1.53;;;25.90;73.80;;;;;;4934967;28;20428;-83
2023/07/23 09:28:30;;;;;;;1.70;1.60;;;26.00;72.60;;;;;;4946273;28;20184;-82
2023/07/23 09:30:57;;;;;;;1.30;1.20;;;26.10;71.90;;;;;;4956263;28;21047;-83
2023/07/23 09:33:36;;;;;;;2.40;1.37;;;26.10;72.40;;;;;;4937046;28;20494;-83
2023/07/23 09:36:03;;;;;;;2.70;1.60;;;26.20;72.70;;;;;;4946985;28;20486;-85
2023/07/23 09:38:29;;;;;;;1.40;1.30;;;26.30;71.30;;;;;;4949659;28;20423;-81
2023/07/23 09:40:55;;;;;;;1.90;1.40;;;26.40;71.00;;;;;;4939075;28;20470;-86
2023/07/23 09:43:21;;;;;;;2.67;1.97;;;26.40;72.10;;;;;;4949794;28;20495;-83
2023/07/23 09:45:47;;;;;;;3.67;1.97;;;26.50;72.50;;;;;;4948023;28;20194;-83
2023/07/23 09:48:17;;;;;;;1.67;1.60;;;26.50;71.60;;;;;;4938681;28;20420;-81
2023/07/23 09:50:44;;;;;;;4.90;2.67;;;26.60;71.70;;;;;;4940879;28;20190;-83
2023/07/23 09:53:12;;;;;;;3.03;1.90;;;26.60;71.90;;;;;;4943300;28;20948;-84
2023/07/23 09:55:39;;;;;;;3.33;2.43;;;26.70;71.00;;;;;;4941682;28;20435;-84
2023/07/23 09:58:05;;;;;;;2.20;2.00;;;26.70;70.40;;;;;;4938567;28;20428;-80
2023/07/23 10:00:33;;;;;;;2.33;1.30;;;26.70;71.10;;;;;;4935913;28;20424;-83
2023/07/23 10:03:00;;;;;;;1.57;1.47;;;26.70;71.00;;;;;;4943982;28;20911;-84
2023/07/23 10:05:26;;;;;;;1.77;1.70;;;26.80;71.20;;;;;;4948001;28;20430;-83
2023/07/23 10:07:53;;;;;;;2.70;2.43;;;26.80;71.00;;;;;;4950283;28;20418;-80
2023/07/23 10:10:19;;;;;;;8.30;2.67;;;26.80;70.70;;;;;;4940599;28;20452;-81
2023/07/23 10:12:46;;;;;;;1.70;1.20;;;26.90;71.00;;;;;;4940805;28;20423;-79
2023/07/23 10:15:12;;;;;;;1.47;1.43;;;26.90;71.70;;;;;;4964249;23;20510;-74
2023/07/23 10:17:42;;;;;;;2.33;1.50;;;26.90;70.20;;;;;;4935057;29;20487;-75
2023/07/23 10:20:10;;;;;;;1.70;1.63;;;26.90;68.90;;;;;;4914993;29;20428;-73
2023/07/23 10:22:37;;;;;;;1.67;1.50;;;26.80;69.00;;;;;;4896597;29;20521;-75
2023/07/23 10:25:33;;;;;;;1.53;1.17;;;26.90;69.70;;;;;;4879617;29;20440;-74
2023/07/23 10:27:59;;;;;;;1.97;1.87;;;27.00;69.70;;;;;;4896793;29;20429;-74
2023/07/23 10:30:26;;;;;;;2.80;1.93;;;27.00;68.50;;;;;;4895144;29;20516;-73
2023/07/23 10:33:10;;;;;;;2.47;2.10;;;26.90;68.20;;;;;;4896860;29;20425;-79
2023/07/23 10:35:58;;;;;;;1.43;1.40;;;26.90;68.50;;;;;;4895250;29;20475;-75
2023/07/23 10:38:29;;;;;;;1.30;1.23;;;26.80;69.80;;;;;;4894314;29;20516;-75
2023/07/23 10:40:55;;;;;;;2.63;1.80;;;26.80;70.20;;;;;;4903157;29;20448;-75
2023/07/23 10:43:20;;;;;;;2.60;1.73;;;26.80;70.30;;;;;;4911460;29;20996;-73
2023/07/23 10:45:49;;;;;;;1.60;1.40;;;26.80;70.90;;;;;;4895043;29;20689;-75
2023/07/23 10:48:17;;;;;;;2.27;2.07;;;26.80;71.00;;;;;;4895591;29;20244;-74
2023/07/23 10:51:00;;;;;;;3.80;1.90;;;26.90;71.60;;;;;;4895400;29;20488;-73
2023/07/23 10:53:31;;;;;;;3.63;2.03;;;27.00;72.30;;;;;;4895238;29;20430;-73
2023/07/23 10:55:59;;;;;;;1.80;1.43;;;27.20;71.50;;;;;;4895252;29;20504;-78
2023/07/23 10:58:26;;;;;;;1.40;1.20;;;27.30;69.60;;;;;;4911086;29;20934;-71
2023/07/23 11:00:59;;;;;;;2.73;2.10;;;27.40;69.60;;;;;;4896012;29;20446;-75
2023/07/23 11:03:26;;;;;;;2.37;1.77;;;27.50;70.10;;;;;;4895050;29;20544;-69
2023/07/23 11:05:52;;;;;;;2.40;1.90;;;27.60;68.40;;;;;;4895350;29;20429;-70
2023/07/23 11:08:23;;;;;;;5.30;1.73;;;27.50;69.50;;;;;;4893940;29;20812;-73
2023/07/23 11:10:57;;;;;;;5.00;1.83;;;27.50;68.60;;;;;;4892751;29;20478;-77
2023/07/23 11:13:25;;;;;;;1.70;1.53;;;27.50;68.60;;;;;;4894064;29;20426;-73
2023/07/23 11:15:51;;;;;;;1.40;1.30;;;27.40;68.80;;;;;;4882459;29;20474;-81
2023/07/23 11:18:18;;;;;;;1.33;1.23;;;27.30;69.50;;;;;;4899809;29;21045;-75
2023/07/23 11:20:49;;;;;;;2.77;2.60;;;27.30;69.50;;;;;;4886781;29;20461;-72
2023/07/23 11:23:16;;;;;;;2.10;1.73;;;27.30;69.70;;;;;;4909244;29;20474;-70
2023/07/23 11:25:43;;;;;;;3.80;2.57;;;27.40;68.40;;;;;;4894818;29;20520;-75
2023/07/23 11:28:09;;;;;;;2.13;1.50;;;27.40;68.50;;;;;;4893098;29;20439;-72
2023/07/23 11:30:34;;;;;;;2.20;1.57;;;27.40;69.30;;;;;;4885852;29;20449;-73
2023/07/23 11:33:02;;;;;;;8.13;1.70;;;27.50;68.00;;;;;;4894683;29;21126;-72
2023/07/23 11:35:28;;;;;;;1.53;1.47;;;27.60;68.40;;;;;;4893723;29;20276;-72
2023/07/23 11:37:55;;;;;;;2.30;1.37;;;27.60;68.40;;;;;;4893845;29;20701;-72
2023/07/23 11:40:23;;;;;;;1.10;1.00;;;27.70;67.50;;;;;;4877772;29;20928;-68
2023/07/23 11:42:49;;;;;;;1.63;1.53;;;27.60;68.40;;;;;;4905908;29;20470;-72
2023/07/23 11:45:16;;;;;;;1.63;1.33;;;27.60;68.10;;;;;;4891006;29;20440;-75
2023/07/23 11:47:50;;;;;;;1.50;1.10;;;27.60;68.40;;;;;;4891920;29;20277;-74
2023/07/23 11:50:16;;;;;;;3.73;2.10;;;27.60;67.90;;;;;;4884254;29;20434;-73
2023/07/23 11:52:43;;;;;;;2.83;2.23;;;27.60;67.20;;;;;;4887797;29;20425;-79
2023/07/23 11:55:18;;;;;;;1.87;1.53;;;27.60;66.90;;;;;;4892311;29;20433;-76
2023/07/23 11:57:44;;;;;;;1.60;1.50;;;27.50;66.80;;;;;;4894623;29;20428;-69
2023/07/23 12:00:10;;;;;;;5.03;2.40;;;27.50;66.00;;;;;;4895207;29;20441;-74
2023/07/23 12:02:36;;;;;;;2.20;1.47;;;27.40;65.50;;;;;;4895882;29;20209;-75
2023/07/23 12:05:02;;;;;;;2.63;1.43;;;27.40;66.30;;;;;;4889071;29;20430;-76
2023/07/23 12:07:29;;;;;;;5.03;2.90;;;27.30;66.30;;;;;;4893833;29;20709;-72
2023/07/23 12:09:54;;;;;;;1.60;1.53;;;27.30;65.70;;;;;;4894440;29;20430;-74
2023/07/23 12:12:22;;;;;;;2.20;1.77;;;27.20;65.60;;;;;;4893494;29;20464;-76
2023/07/23 12:15:01;;;;;;;2.00;1.57;;;27.10;66.00;;;;;;4893480;29;20233;-71
2023/07/23 12:17:27;;;;;;;1.10;1.00;;;27.10;66.20;;;;;;4895176;29;20444;-68
2023/07/23 12:19:52;;;;;;;1.33;1.27;;;27.00;66.60;;;;;;4893609;29;20440;-76
2023/07/23 12:22:18;;;;;;;1.47;1.37;;;27.00;66.90;;;;;;4887969;29;20435;-72
2023/07/23 12:24:44;;;;;;;0.87;0.77;;;27.00;67.10;;;;;;4893765;29;20189;-71
2023/07/23 12:27:09;;;;;;;2.70;1.50;;;26.90;66.10;;;;;;4876635;29;20195;-74
2023/07/23 12:29:41;;;;;;;1.57;1.30;;;26.90;65.80;;;;;;4884525;29;20197;-72
2023/07/23 12:32:17;;;;;;;2.63;1.80;;;26.80;66.90;;;;;;4893892;29;20205;-72
2023/07/23 12:34:45;;;;;;;1.10;1.00;;;26.80;66.40;;;;;;4884480;29;20445;-72
2023/07/23 12:37:11;;;;;;;5.03;1.83;;;26.80;66.30;;;;;;4888810;29;20438;-70
2023/07/23 12:39:37;;;;;;;1.43;1.10;;;26.80;66.50;;;;;;4892587;29;20478;-73
2023/07/23 12:42:03;;;;;;;3.30;1.90;;;26.80;66.80;;;;;;4890295;29;20524;-74
2023/07/23 12:44:31;;;;;;;2.33;1.83;;;26.70;67.60;;;;;;4893153;29;20235;-72
2023/07/23 12:46:57;;;;;;;1.53;1.43;;;26.70;68.10;;;;;;4895059;29;20193;-76
2023/07/23 12:49:22;;;;;;;1.70;1.60;;;26.60;67.80;;;;;;4894045;29;20422;-77
2023/07/23 12:51:48;;;;;;;4.00;1.77;;;26.60;68.10;;;;;;4892400;29;20223;-78
2023/07/23 12:54:13;;;;;;;1.97;1.10;;;26.50;68.10;;;;;;4891880;29;20189;-72
2023/07/23 12:56:39;;;;;;;1.37;1.20;;;26.50;68.80;;;;;;4891787;29;20280;-77
2023/07/23 12:59:05;;;;;;;1.43;1.33;;;26.50;68.40;;;;;;4894798;29;20193;-76
2023/07/23 13:01:30;;;;;;;2.20;1.63;;;26.50;68.70;;;;;;4890088;29;20202;-76
2023/07/23 13:03:56;;;;;;;2.00;1.40;;;26.60;68.40;;;;;;4886028;29;20205;-79
2023/07/23 13:06:22;;;;;;;2.40;1.47;;;26.60;68.10;;;;;;4888885;29;20249;-74
2023/07/23 13:08:47;;;;;;;3.80;2.80;;;26.60;68.70;;;;;;4892810;29;20188;-75
2023/07/23 13:11:13;;;;;;;1.57;1.50;;;26.60;68.90;;;;;;4891233;29;20694;-77
2023/07/23 13:13:38;;;;;;;1.63;1.53;;;26.50;68.90;;;;;;4888421;29;20544;-78
2023/07/23 13:16:04;;;;;;;2.47;2.13;;;26.60;68.30;;;;;;4888584;29;20591;-82
2023/07/23 13:18:30;;;;;;;2.20;1.20;;;26.50;69.20;;;;;;4892885;29;20200;-74
2023/07/23 13:20:56;;;;;;;2.33;1.97;;;26.60;69.90;;;;;;4894328;29;20976;-75
2023/07/23 13:23:22;;;;;;;2.20;1.63;;;26.60;69.10;;;;;;4894272;29;20555;-75
2023/07/23 13:25:48;;;;;;;1.83;1.40;;;26.60;69.70;;;;;;4893188;29;20312;-74
2023/07/23 13:28:14;;;;;;;2.80;1.30;;;26.70;69.80;;;;;;4893166;29;20240;-75
2023/07/23 13:30:39;;;;;;;1.57;1.47;;;26.80;69.70;;;;;;4892682;29;20533;-75
2023/07/23 13:33:06;;;;;;;1.60;1.50;;;26.80;70.10;;;;;;4894774;29;20192;-76
2023/07/23 13:35:32;;;;;;;2.07;1.23;;;26.90;69.10;;;;;;4892728;29;20185;-74
2023/07/23 13:37:58;;;;;;;1.70;1.23;;;26.90;69.60;;;;;;4891524;29;20433;-77
2023/07/23 13:40:23;;;;;;;4.20;1.73;;;26.90;69.40;;;;;;4891452;29;20205;-76
2023/07/23 13:42:49;;;;;;;1.33;1.23;;;26.90;69.10;;;;;;4894142;29;20264;-74
2023/07/23 13:45:15;;;;;;;2.63;2.07;;;26.90;68.50;;;;;;4891132;29;20197;-76
2023/07/23 13:47:41;;;;;;;2.07;1.40;;;26.90;68.10;;;;;;4894519;29;20441;-75
2023/07/23 13:50:07;;;;;;;2.87;2.07;;;26.90;65.90;;;;;;4889149;29;20426;-77
2023/07/23 13:52:33;;;;;;;2.00;1.43;;;26.80;63.80;;;;;;4893132;29;20919;-76
2023/07/23 13:55:00;;;;;;;3.03;1.40;;;26.70;64.80;;;;;;4897707;29;20489;-81
2023/07/23 13:57:26;;;;;;;1.27;1.00;;;26.60;65.00;;;;;;4894857;29;20194;-73
2023/07/23 13:59:52;;;;;;;4.30;1.53;;;26.50;65.10;;;;;;4897063;29;21010;-71
2023/07/23 14:02:17;;;;;;;2.27;1.60;;;26.40;65.00;;;;;;4893502;29;20728;-78
2023/07/23 14:04:44;;;;;;;9.03;1.20;;;26.30;66.50;;;;;;4896643;29;20196;-71
2023/07/23 14:07:09;;;;;;;4.70;2.17;;;26.00;66.20;;;;;;4887932;29;20193;-74
2023/07/23 14:09:35;;;;;;;3.43;1.43;;;25.90;66.70;;;;;;4896608;29;20429;-67
2023/07/23 14:12:00;;;;;;;2.90;1.47;;;25.70;68.80;;;;;;4897526;29;20284;-71
2023/07/23 14:14:26;;;;;;;1.73;1.70;;;25.50;71.60;;;;;;4897171;29;20237;-68
2023/07/23 14:16:51;;;;;;;6.77;1.83;;;25.20;72.60;;;;;;4897147;29;20262;-67
2023/07/23 14:19:17;;;;;;;2.03;1.93;;;24.90;73.30;;;;;;4896026;29;20196;-74
2023/07/23 14:21:43;;;;;;;2.00;1.33;;;24.60;74.50;;;;;;4880393;29;20742;-73
2023/07/23 14:24:08;;;;;;;2.80;1.90;;;24.40;74.90;;;;;;4896297;29;20281;-72
2023/07/23 14:26:34;;;;;;;4.00;2.37;;;24.20;76.10;;;;;;4896011;29;20185;-78
2023/07/23 14:28:59;;;;;;;1.70;1.43;;;24.10;77.50;;;;;;4897609;29;20212;-77
2023/07/23 14:31:25;;;;;;;1.07;1.00;;;24.10;77.90;;;;;;4896343;29;20678;-72
2023/07/23 14:33:51;;;;;;;2.33;1.77;;;24.00;78.90;;;;;;4896391;29;20216;-76
2023/07/23 14:36:16;;;;;;;2.03;1.93;;;23.90;78.00;;;;;;4896016;29;20287;-78
2023/07/23 14:38:42;;;;;;;2.30;1.40;;;23.90;78.40;;;;;;4896099;29;20224;-78
2023/07/23 14:41:07;;;;;;;1.53;1.43;;;23.90;78.20;;;;;;4886435;29;20220;-75
2023/07/23 14:43:33;;;;;;;1.93;1.47;;;23.90;77.90;;;;;;4893810;29;20736;-81
2023/07/23 14:45:59;;;;;;;1.90;1.17;;;23.90;78.10;;;;;;4896713;29;20184;-80
2023/07/23 14:48:25;;;;;;;1.80;1.43;;;23.90;78.10;;;;;;4896924;29;20190;-71
2023/07/23 14:50:51;;;;;;;2.03;1.77;;;23.90;77.90;;;;;;4894838;29;20511;-76
2023/07/23 14:53:16;;;;;;;1.87;1.73;;;23.90;77.80;;;;;;4896925;29;20306;-77
2023/07/23 14:55:42;;;;;;;2.13;1.30;;;23.90;77.70;;;;;;4895336;29;20232;-73
2023/07/23 14:58:11;;;;;;;3.80;2.10;;;24.00;77.90;;;;;;4896152;29;20305;-77
2023/07/23 15:00:37;;;;;;;4.60;2.07;;;24.00;77.20;;;;;;4894377;29;20209;-79
2023/07/23 15:03:03;;;;;;;2.07;1.43;;;24.00;77.30;;;;;;4894539;29;20475;-77
2023/07/23 15:05:28;;;;;;;1.40;1.30;;;24.00;77.30;;;;;;4896066;29;20453;-78
2023/07/23 15:07:54;;;;;;;2.80;1.80;;;24.00;77.00;;;;;;4895632;29;20193;-79
2023/07/23 15:10:19;;;;;;;1.50;1.40;;;24.10;77.50;;;;;;4896979;29;20181;-84
2023/07/23 15:12:45;;;;;;;1.80;1.70;;;24.10;77.70;;;;;;4894802;29;20325;-76
2023/07/23 15:15:11;;;;;;;1.50;1.40;;;24.10;78.00;;;;;;4894865;29;20325;-77
2023/07/23 15:17:37;;;;;;;3.43;2.00;;;24.00;78.20;;;;;;4893303;29;20189;-81
2023/07/23 15:20:04;;;;;;;5.23;1.73;;;24.00;77.80;;;;;;4892408;29;20427;-81
2023/07/23 15:22:29;;;;;;;1.77;1.70;;;24.00;78.00;;;;;;4894457;29;20196;-82
2023/07/23 15:24:55;;;;;;;3.40;1.73;;;24.00;78.10;;;;;;4895672;29;20429;-77
2023/07/23 15:27:23;;;;;;;5.30;2.23;;;24.00;77.50;;;;;;4895989;29;20661;-84
2023/07/23 15:29:54;;;;;;;5.40;3.00;;;24.00;77.60;;;;;;4888645;29;20189;-73
2023/07/23 15:32:21;;;;;;;1.70;1.60;;;23.90;77.30;;;;;;4894102;29;20449;-76
2023/07/23 15:34:47;;;;;;;3.53;2.50;;;23.90;77.20;;;;;;4894728;29;20426;-77
2023/07/23 15:37:13;;;;;;;1.83;1.73;;;23.90;77.20;;;;;;4894416;29;20493;-76
2023/07/23 15:39:38;;;;;;;2.03;1.83;;;23.90;77.20;;;;;;4894290;29;20434;-75
2023/07/23 15:42:04;;;;;;;2.00;1.53;;;23.90;77.20;;;;;;4892167;29;20201;-75
2023/07/23 15:44:30;;;;;;;4.43;1.30;;;23.90;77.40;;;;;;4889479;29;20206;-75
2023/07/23 15:46:55;;;;;;;3.10;2.03;;;23.90;77.70;;;;;;4892785;29;20860;-75
2023/07/23 15:49:21;;;;;;;3.57;2.03;;;23.90;77.70;;;;;;4890368;29;20217;-75
2023/07/23 15:51:46;;;;;;;3.63;2.07;;;23.90;78.00;;;;;;4894821;29;20213;-76
2023/07/23 15:54:13;;;;;;;3.00;1.63;;;23.90;77.40;;;;;;4892344;29;20193;-75
2023/07/23 15:56:39;;;;;;;4.40;1.77;;;23.80;77.20;;;;;;4894314;29;20243;-76
2023/07/23 15:59:05;;;;;;;5.23;2.07;;;23.80;77.50;;;;;;4893248;29;20429;-76
2023/07/23 16:01:30;;;;;;;1.70;1.60;;;23.80;77.70;;;;;;4893480;29;20205;-70
2023/07/23 16:03:57;;;;;;;16.07;1.97;;;23.80;77.60;;;;;;4892666;29;20217;-71
2023/07/23 16:06:23;;;;;;;2.57;1.63;;;23.80;77.90;;;;;;4885914;29;20562;-74
2023/07/23 16:08:48;;;;;;;2.37;1.63;;;23.80;77.30;;;;;;4893308;29;20930;-75
2023/07/23 16:11:14;;;;;;;1.83;1.30;;;23.80;77.40;;;;;;4891334;29;20280;-72
2023/07/23 16:13:40;;;;;;;1.30;1.20;;;23.80;78.00;;;;;;4895047;29;20624;-75
2023/07/23 16:16:06;;;;;;;1.90;1.80;;;23.80;77.80;;;;;;4913359;23;20570;-85
2023/07/23 16:18:32;;;;;;;3.17;1.67;;;23.80;78.00;;;;;;4937224;29;20215;-85
2023/07/23 16:20:57;;;;;;;1.87;1.43;;;23.80;78.40;;;;;;4941492;28;20427;-81
2023/07/23 16:23:23;;;;;;;1.50;0.93;;;23.80;79.10;;;;;;4930195;29;20204;-84
2023/07/23 16:25:48;;;;;;;4.03;2.07;;;23.80;78.30;;;;;;4935116;29;20399;-86
2023/07/23 16:28:16;;;;;;;2.43;1.50;;;23.80;78.30;;;;;;4923635;29;20185;-83
2023/07/23 16:30:41;;;;;;;2.90;1.87;;;23.80;78.20;;;;;;4929996;29;20598;-85
2023/07/23 16:33:08;;;;;;;1.63;1.40;;;23.80;78.00;;;;;;4930777;29;20431;-82
2023/07/23 16:35:34;;;;;;;1.40;1.30;;;23.70;78.00;;;;;;4920841;29;20190;-84
2023/07/23 16:38:04;;;;;;;2.70;2.13;;;23.80;78.00;;;;;;4918791;29;20556;-84
2023/07/23 16:40:32;;;;;;;4.63;2.37;;;23.70;77.60;;;;;;4918575;29;20512;-83
2023/07/23 16:42:58;;;;;;;1.77;1.40;;;23.70;77.50;;;;;;4924290;29;20464;-82